Terminal Aerodrome Forecast
Issued by NWS

Home | Current Version | Previous Version | Text Only | Print | Product List | Glossary On
Versions: 1 2 3 4 5 6 7 8 9 10 11 12 13 14 15 16 17
000
FTAK31 PANC 201131
TAFADQ
TAF
PADQ 201131Z 2012/2112 31022G30KT P6SM SCT025 BKN040 OVC060
      TEMPO 2012/2014 4SM -SN BKN025 OVC040
     FM201400 33028G40KT 2SM -SN BLSN SCT010 OVC020
     FM202000 35025G35KT P6SM VCSH SCT035 BKN060
     FM210300 34015G22KT P6SM FEW040 SCT100=

USA.gov is the U.S. government's official web portal to all federal, state and local government web resources and services.